sensor_id;sensor_type;location;lat;lon;timestamp;pressure;altitude;pressure_sealevel;temperature;humidity
36254;BME280;22291;52.250;21.228;2022-08-30T00:00:21;100462.03;;;17.54;69.42
36254;BME280;22291;52.250;21.228;2022-08-30T00:03:09;100461.80;;;17.53;69.57
36254;BME280;22291;52.250;21.228;2022-08-30T00:05:37;100460.78;;;17.51;69.55
36254;BME280;22291;52.250;21.228;2022-08-30T00:08:05;100463.08;;;17.49;70.04
36254;BME280;22291;52.250;21.228;2022-08-30T00:10:32;100462.84;;;17.48;70.13
36254;BME280;22291;52.250;21.228;2022-08-30T00:12:59;100461.04;;;17.46;70.10
36254;BME280;22291;52.250;21.228;2022-08-30T00:15:26;100467.55;;;17.42;70.22
36254;BME280;22291;52.250;21.228;2022-08-30T00:17:55;100464.18;;;17.39;70.28
36254;BME280;22291;52.250;21.228;2022-08-30T00:20:25;100462.72;;;17.35;70.28
36254;BME280;22291;52.250;21.228;2022-08-30T00:22:52;100454.63;;;17.32;70.69
36254;BME280;22291;52.250;21.228;2022-08-30T00:25:19;100454.78;;;17.30;70.57
36254;BME280;22291;52.250;21.228;2022-08-30T00:27:45;100457.05;;;17.28;70.70
36254;BME280;22291;52.250;21.228;2022-08-30T00:30:15;100457.97;;;17.26;70.85
36254;BME280;22291;52.250;21.228;2022-08-30T00:32:42;100463.58;;;17.23;71.24
36254;BME280;22291;52.250;21.228;2022-08-30T00:35:11;100462.56;;;17.22;71.41
36254;BME280;22291;52.250;21.228;2022-08-30T00:37:40;100455.26;;;17.20;71.54
36254;BME280;22291;52.250;21.228;2022-08-30T00:40:09;100461.45;;;17.16;71.68
36254;BME280;22291;52.250;21.228;2022-08-30T00:42:37;100452.00;;;17.14;71.84
36254;BME280;22291;52.250;21.228;2022-08-30T00:45:19;100458.83;;;17.14;72.06
36254;BME280;22291;52.250;21.228;2022-08-30T00:47:48;100455.22;;;17.10;72.15
36254;BME280;22291;52.250;21.228;2022-08-30T00:50:18;100455.56;;;17.08;72.11
36254;BME280;22291;52.250;21.228;2022-08-30T00:52:48;100458.98;;;17.05;72.47
36254;BME280;22291;52.250;21.228;2022-08-30T00:55:17;100454.66;;;17.04;72.51
36254;BME280;22291;52.250;21.228;2022-08-30T00:57:45;100453.77;;;17.00;72.80
36254;BME280;22291;52.250;21.228;2022-08-30T01:00:14;100451.97;;;16.98;73.35
36254;BME280;22291;52.250;21.228;2022-08-30T01:02:41;100455.28;;;16.97;73.04
36254;BME280;22291;52.250;21.228;2022-08-30T01:05:09;100460.27;;;16.95;73.18
36254;BME280;22291;52.250;21.228;2022-08-30T01:07:37;100458.13;;;16.95;73.06
36254;BME280;22291;52.250;21.228;2022-08-30T01:10:07;100459.72;;;16.96;73.52
36254;BME280;22291;52.250;21.228;2022-08-30T01:12:36;100457.68;;;16.93;73.37
36254;BME280;22291;52.250;21.228;2022-08-30T01:15:05;100468.03;;;16.93;73.22
36254;BME280;22291;52.250;21.228;2022-08-30T01:17:32;100459.83;;;16.93;73.30
36254;BME280;22291;52.250;21.228;2022-08-30T01:20:05;100465.64;;;16.92;73.42
36254;BME280;22291;52.250;21.228;2022-08-30T01:25:24;100464.86;;;16.91;73.42
36254;BME280;22291;52.250;21.228;2022-08-30T01:27:59;100465.98;;;16.90;73.97
36254;BME280;22291;52.250;21.228;2022-08-30T01:30:24;100465.31;;;16.87;73.52
36254;BME280;22291;52.250;21.228;2022-08-30T01:32:55;100468.41;;;16.86;73.75
36254;BME280;22291;52.250;21.228;2022-08-30T01:35:25;100466.55;;;16.84;73.75
36254;BME280;22291;52.250;21.228;2022-08-30T01:37:52;100459.52;;;16.83;73.91
36254;BME280;22291;52.250;21.228;2022-08-30T01:40:19;100459.85;;;16.81;73.77
36254;BME280;22291;52.250;21.228;2022-08-30T01:42:46;100458.59;;;16.78;73.66
36254;BME280;22291;52.250;21.228;2022-08-30T01:45:12;100460.09;;;16.76;74.15
36254;BME280;22291;52.250;21.228;2022-08-30T01:47:39;100456.58;;;16.75;74.23
36254;BME280;22291;52.250;21.228;2022-08-30T01:50:08;100465.23;;;16.71;74.45
36254;BME280;22291;52.250;21.228;2022-08-30T01:52:35;100464.00;;;16.69;74.44
36254;BME280;22291;52.250;21.228;2022-08-30T01:55:04;100469.56;;;16.66;74.34
36254;BME280;22291;52.250;21.228;2022-08-30T01:57:31;100470.70;;;16.65;74.46
36254;BME280;22291;52.250;21.228;2022-08-30T01:59:57;100465.81;;;16.65;74.49
36254;BME280;22291;52.250;21.228;2022-08-30T02:02:26;100464.00;;;16.62;74.69
36254;BME280;22291;52.250;21.228;2022-08-30T02:04:55;100467.52;;;16.63;74.74
36254;BME280;22291;52.250;21.228;2022-08-30T02:07:23;100457.28;;;16.60;74.88
36254;BME280;22291;52.250;21.228;2022-08-30T02:09:51;100466.63;;;16.59;74.97
36254;BME280;22291;52.250;21.228;2022-08-30T02:12:18;100462.09;;;16.57;74.93
36254;BME280;22291;52.250;21.228;2022-08-30T02:14:44;100459.70;;;16.55;74.79
36254;BME280;22291;52.250;21.228;2022-08-30T02:17:12;100461.41;;;16.54;74.73
36254;BME280;22291;52.250;21.228;2022-08-30T02:19:40;100467.22;;;16.52;74.82
36254;BME280;22291;52.250;21.228;2022-08-30T02:22:07;100462.09;;;16.51;74.77
36254;BME280;22291;52.250;21.228;2022-08-30T02:24:33;100466.88;;;16.48;74.92
36254;BME280;22291;52.250;21.228;2022-08-30T02:27:00;100465.30;;;16.47;75.12
36254;BME280;22291;52.250;21.228;2022-08-30T02:29:27;100464.63;;;16.43;75.17
36254;BME280;22291;52.250;21.228;2022-08-30T02:31:54;100469.64;;;16.41;75.42
36254;BME280;22291;52.250;21.228;2022-08-30T02:34:20;100468.61;;;16.40;75.75
36254;BME280;22291;52.250;21.228;2022-08-30T02:36:46;100471.78;;;16.36;75.74
36254;BME280;22291;52.250;21.228;2022-08-30T02:39:14;100471.34;;;16.34;75.58
36254;BME280;22291;52.250;21.228;2022-08-30T02:41:41;100466.02;;;16.31;75.54
36254;BME280;22291;52.250;21.228;2022-08-30T02:44:08;100472.60;;;16.30;75.53
36254;BME280;22291;52.250;21.228;2022-08-30T02:46:36;100470.79;;;16.28;75.65
36254;BME280;22291;52.250;21.228;2022-08-30T02:49:04;100471.13;;;16.27;75.52
36254;BME280;22291;52.250;21.228;2022-08-30T02:51:30;100472.84;;;16.25;75.73
36254;BME280;22291;52.250;21.228;2022-08-30T02:53:57;100477.61;;;16.22;75.58
36254;BME280;22291;52.250;21.228;2022-08-30T02:56:23;100480.47;;;16.19;75.70
36254;BME280;22291;52.250;21.228;2022-08-30T02:58:49;100479.78;;;16.16;75.67
36254;BME280;22291;52.250;21.228;2022-08-30T03:01:15;100478.52;;;16.14;76.12
36254;BME280;22291;52.250;21.228;2022-08-30T03:03:44;100474.31;;;16.10;76.07
36254;BME280;22291;52.250;21.228;2022-08-30T03:06:12;100473.08;;;16.08;76.59
36254;BME280;22291;52.250;21.228;2022-08-30T03:08:40;100475.33;;;16.05;76.84
36254;BME280;22291;52.250;21.228;2022-08-30T03:11:06;100481.50;;;16.02;76.66
36254;BME280;22291;52.250;21.228;2022-08-30T03:13:33;100486.47;;;16.00;77.09
36254;BME280;22291;52.250;21.228;2022-08-30T03:15:59;100482.75;;;15.99;76.62
36254;BME280;22291;52.250;21.228;2022-08-30T03:18:25;100489.67;;;15.96;76.70
36254;BME280;22291;52.250;21.228;2022-08-30T03:20:51;100485.13;;;15.94;77.22
36254;BME280;22291;52.250;21.228;2022-08-30T03:23:18;100489.89;;;15.91;77.31
36254;BME280;22291;52.250;21.228;2022-08-30T03:25:44;100495.47;;;15.89;77.02
36254;BME280;22291;52.250;21.228;2022-08-30T03:28:10;100499.09;;;15.86;77.22
36254;BME280;22291;52.250;21.228;2022-08-30T03:30:37;100495.33;;;15.85;77.71
36254;BME280;22291;52.250;21.228;2022-08-30T03:33:03;100500.34;;;15.83;77.55
36254;BME280;22291;52.250;21.228;2022-08-30T03:35:29;100502.03;;;15.81;77.83
36254;BME280;22291;52.250;21.228;2022-08-30T03:37:57;100499.30;;;15.81;77.94
36254;BME280;22291;52.250;21.228;2022-08-30T03:40:24;100493.64;;;15.80;77.74
36254;BME280;22291;52.250;21.228;2022-08-30T03:42:50;100496.70;;;15.79;77.54
36254;BME280;22291;52.250;21.228;2022-08-30T03:45:17;100493.53;;;15.77;77.52
36254;BME280;22291;52.250;21.228;2022-08-30T03:47:45;100488.14;;;15.74;77.76
36254;BME280;22291;52.250;21.228;2022-08-30T03:50:13;100486.08;;;15.71;78.06
36254;BME280;22291;52.250;21.228;2022-08-30T03:52:40;100493.81;;;15.69;77.80
36254;BME280;22291;52.250;21.228;2022-08-30T03:55:07;100491.42;;;15.67;78.19
36254;BME280;22291;52.250;21.228;2022-08-30T03:57:33;100493.70;;;15.65;78.11
36254;BME280;22291;52.250;21.228;2022-08-30T04:00:00;100495.06;;;15.65;78.44
36254;BME280;22291;52.250;21.228;2022-08-30T04:02:26;100504.36;;;15.64;78.38
36254;BME280;22291;52.250;21.228;2022-08-30T04:04:52;100496.52;;;15.63;78.27
36254;BME280;22291;52.250;21.228;2022-08-30T04:07:19;100491.88;;;15.63;78.36
36254;BME280;22291;52.250;21.228;2022-08-30T04:09:46;100494.94;;;15.62;78.35
36254;BME280;22291;52.250;21.228;2022-08-30T04:12:12;100500.39;;;15.62;78.83
36254;BME280;22291;52.250;21.228;2022-08-30T04:14:38;100497.67;;;15.62;78.82
36254;BME280;22291;52.250;21.228;2022-08-30T04:17:05;100490.85;;;15.62;79.06
36254;BME280;22291;52.250;21.228;2022-08-30T04:19:31;100496.52;;;15.63;79.26
36254;BME280;22291;52.250;21.228;2022-08-30T04:21:57;100500.06;;;15.63;79.22
36254;BME280;22291;52.250;21.228;2022-08-30T04:24:24;100492.67;;;15.64;79.36
36254;BME280;22291;52.250;21.228;2022-08-30T04:26:50;100499.73;;;15.65;79.68
36254;BME280;22291;52.250;21.228;2022-08-30T04:29:16;100506.08;;;15.69;79.83
36254;BME280;22291;52.250;21.228;2022-08-30T04:31:43;100498.59;;;15.72;80.18
36254;BME280;22291;52.250;21.228;2022-08-30T04:34:11;100502.25;;;15.76;80.46
36254;BME280;22291;52.250;21.228;2022-08-30T04:36:38;100508.85;;;15.81;80.65
36254;BME280;22291;52.250;21.228;2022-08-30T04:39:05;100505.91;;;15.86;81.09
36254;BME280;22291;52.250;21.228;2022-08-30T04:41:32;100509.22;;;15.92;81.24
36254;BME280;22291;52.250;21.228;2022-08-30T04:44:00;100511.73;;;15.97;81.52
36254;BME280;22291;52.250;21.228;2022-08-30T04:46:28;100518.87;;;16.02;81.58
36254;BME280;22291;52.250;21.228;2022-08-30T04:48:55;100520.25;;;16.08;81.80
36254;BME280;22291;52.250;21.228;2022-08-30T04:51:21;100525.48;;;16.13;81.61
36254;BME280;22291;52.250;21.228;2022-08-30T04:53:48;100528.56;;;16.18;81.66
36254;BME280;22291;52.250;21.228;2022-08-30T04:56:17;100526.73;;;16.22;81.77
36254;BME280;22291;52.250;21.228;2022-08-30T04:58:49;100533.33;;;16.27;81.63
36254;BME280;22291;52.250;21.228;2022-08-30T05:01:26;100536.98;;;16.31;81.55
36254;BME280;22291;52.250;21.228;2022-08-30T05:03:52;100529.45;;;16.34;81.46
36254;BME280;22291;52.250;21.228;2022-08-30T05:06:21;100538.66;;;16.36;81.33
36254;BME280;22291;52.250;21.228;2022-08-30T05:08:48;100542.66;;;16.38;81.39
36254;BME280;22291;52.250;21.228;2022-08-30T05:11:16;100537.41;;;16.39;81.38
36254;BME280;22291;52.250;21.228;2022-08-30T05:13:44;100551.53;;;16.41;81.35
36254;BME280;22291;52.250;21.228;2022-08-30T05:16:12;100550.04;;;16.44;81.25
36254;BME280;22291;52.250;21.228;2022-08-30T05:18:47;100543.11;;;16.47;81.08
36254;BME280;22291;52.250;21.228;2022-08-30T05:21:22;100541.86;;;16.50;81.18
36254;BME280;22291;52.250;21.228;2022-08-30T05:23:46;100546.84;;;16.54;81.24
36254;BME280;22291;52.250;21.228;2022-08-30T05:26:23;100548.31;;;16.58;81.13
36254;BME280;22291;52.250;21.228;2022-08-30T05:28:51;100551.73;;;16.61;81.04
36254;BME280;22291;52.250;21.228;2022-08-30T05:31:38;100555.59;;;16.66;80.99
36254;BME280;22291;52.250;21.228;2022-08-30T05:33:56;100554.67;;;16.68;80.84
36254;BME280;22291;52.250;21.228;2022-08-30T05:36:24;100557.41;;;16.74;81.17
36254;BME280;22291;52.250;21.228;2022-08-30T05:38:53;100555.02;;;16.79;80.93
36254;BME280;22291;52.250;21.228;2022-08-30T05:41:21;100554.81;;;16.84;80.85
36254;BME280;22291;52.250;21.228;2022-08-30T05:43:51;100558.33;;;16.91;80.75
36254;BME280;22291;52.250;21.228;2022-08-30T05:46:19;100553.98;;;16.96;80.65
36254;BME280;22291;52.250;21.228;2022-08-30T05:48:47;100555.55;;;17.03;80.69
36254;BME280;22291;52.250;21.228;2022-08-30T05:51:19;100555.75;;;17.10;80.52
36254;BME280;22291;52.250;21.228;2022-08-30T05:53:49;100555.73;;;17.16;80.31
36254;BME280;22291;52.250;21.228;2022-08-30T05:56:19;100554.12;;;17.22;80.02
36254;BME280;22291;52.250;21.228;2022-08-30T05:58:48;100552.17;;;17.28;80.10
36254;BME280;22291;52.250;21.228;2022-08-30T06:01:35;100557.69;;;17.38;79.89
36254;BME280;22291;52.250;21.228;2022-08-30T06:04:08;100556.30;;;17.44;79.52
36254;BME280;22291;52.250;21.228;2022-08-30T06:06:37;100552.63;;;17.52;79.48
36254;BME280;22291;52.250;21.228;2022-08-30T06:09:07;100551.33;;;17.62;79.40
36254;BME280;22291;52.250;21.228;2022-08-30T06:11:34;100552.53;;;17.71;79.09
36254;BME280;22291;52.250;21.228;2022-08-30T06:14:02;100553.93;;;17.81;78.74
36254;BME280;22291;52.250;21.228;2022-08-30T06:16:29;100549.33;;;17.91;78.75
36254;BME280;22291;52.250;21.228;2022-08-30T06:18:56;100550.98;;;18.02;78.38
36254;BME280;22291;52.250;21.228;2022-08-30T06:21:29;100549.29;;;18.13;77.62
36254;BME280;22291;52.250;21.228;2022-08-30T06:23:57;100548.28;;;18.27;78.26
36254;BME280;22291;52.250;21.228;2022-08-30T06:26:24;100549.06;;;18.44;77.78
36254;BME280;22291;52.250;21.228;2022-08-30T06:28:52;100555.28;;;18.60;77.82
36254;BME280;22291;52.250;21.228;2022-08-30T06:31:20;100550.70;;;18.74;77.13
36254;BME280;22291;52.250;21.228;2022-08-30T06:33:48;100560.92;;;18.83;76.06
36254;BME280;22291;52.250;21.228;2022-08-30T06:36:20;100564.03;;;19.01;75.92
36254;BME280;22291;52.250;21.228;2022-08-30T06:38:49;100562.95;;;19.26;76.24
36254;BME280;22291;52.250;21.228;2022-08-30T06:41:21;100563.66;;;19.52;75.81
36254;BME280;22291;52.250;21.228;2022-08-30T06:43:50;100570.12;;;19.73;75.15
36254;BME280;22291;52.250;21.228;2022-08-30T06:46:20;100562.66;;;19.93;74.78
36254;BME280;22291;52.250;21.228;2022-08-30T06:48:54;100569.55;;;20.06;73.39
36254;BME280;22291;52.250;21.228;2022-08-30T06:51:27;100571.83;;;20.14;72.73
36254;BME280;22291;52.250;21.228;2022-08-30T06:53:57;100572.70;;;20.18;71.84
36254;BME280;22291;52.250;21.228;2022-08-30T06:56:24;100573.84;;;20.17;71.42
36254;BME280;22291;52.250;21.228;2022-08-30T06:58:51;100582.02;;;20.13;70.77
36254;BME280;22291;52.250;21.228;2022-08-30T07:01:24;100583.77;;;20.12;70.84
36254;BME280;22291;52.250;21.228;2022-08-30T07:03:49;100581.02;;;20.12;70.75
36254;BME280;22291;52.250;21.228;2022-08-30T07:06:17;100592.00;;;20.12;70.41
36254;BME280;22291;52.250;21.228;2022-08-30T07:08:47;100593.91;;;20.08;69.86
36254;BME280;22291;52.250;21.228;2022-08-30T07:11:12;100594.77;;;20.02;69.70
36254;BME280;22291;52.250;21.228;2022-08-30T07:13:39;100598.57;;;19.94;69.50
36254;BME280;22291;52.250;21.228;2022-08-30T07:16:10;100599.30;;;19.91;69.53
36254;BME280;22291;52.250;21.228;2022-08-30T07:18:38;100606.09;;;19.87;69.49
36254;BME280;22291;52.250;21.228;2022-08-30T07:21:19;100609.40;;;19.87;69.82
36254;BME280;22291;52.250;21.228;2022-08-30T07:23:55;100607.47;;;19.87;69.56
36254;BME280;22291;52.250;21.228;2022-08-30T07:26:32;100606.09;;;19.87;69.65
36254;BME280;22291;52.250;21.228;2022-08-30T07:29:00;100610.77;;;19.87;69.70
36254;BME280;22291;52.250;21.228;2022-08-30T07:31:29;100616.05;;;19.95;70.00
36254;BME280;22291;52.250;21.228;2022-08-30T07:33:55;100604.23;;;20.05;70.16
36254;BME280;22291;52.250;21.228;2022-08-30T07:36:23;100604.36;;;20.12;69.62
36254;BME280;22291;52.250;21.228;2022-08-30T07:38:50;100604.27;;;20.18;69.06
36254;BME280;22291;52.250;21.228;2022-08-30T07:41:27;100605.63;;;20.28;69.40
36254;BME280;22291;52.250;21.228;2022-08-30T07:43:55;100611.22;;;20.35;68.92
36254;BME280;22291;52.250;21.228;2022-08-30T07:46:22;100613.66;;;20.40;68.71
36254;BME280;22291;52.250;21.228;2022-08-30T07:48:49;100617.83;;;20.44;68.27
36254;BME280;22291;52.250;21.228;2022-08-30T07:51:20;100628.04;;;20.43;67.62
36254;BME280;22291;52.250;21.228;2022-08-30T07:53:47;100626.22;;;20.41;67.64
36254;BME280;22291;52.250;21.228;2022-08-30T07:56:14;100624.23;;;20.38;67.56
36254;BME280;22291;52.250;21.228;2022-08-30T07:58:41;100621.67;;;20.39;67.71
36254;BME280;22291;52.250;21.228;2022-08-30T08:01:10;100618.79;;;20.42;67.77
36254;BME280;22291;52.250;21.228;2022-08-30T08:03:38;100624.53;;;20.46;67.79
36254;BME280;22291;52.250;21.228;2022-08-30T08:06:06;100628.52;;;20.49;67.13
36254;BME280;22291;52.250;21.228;2022-08-30T08:08:35;100628.66;;;20.46;67.32
36254;BME280;22291;52.250;21.228;2022-08-30T08:13:35;100627.19;;;20.62;67.42
36254;BME280;22291;52.250;21.228;2022-08-30T08:16:02;100632.19;;;20.70;67.35
36254;BME280;22291;52.250;21.228;2022-08-30T08:18:28;100635.22;;;20.75;67.50
36254;BME280;22291;52.250;21.228;2022-08-30T08:20:57;100635.68;;;20.80;66.75
36254;BME280;22291;52.250;21.228;2022-08-30T08:23:24;100632.98;;;20.84;66.81
36254;BME280;22291;52.250;21.228;2022-08-30T08:25:51;100629.40;;;20.80;66.40
36254;BME280;22291;52.250;21.228;2022-08-30T08:28:17;100636.31;;;20.83;66.64
36254;BME280;22291;52.250;21.228;2022-08-30T08:30:44;100642.50;;;20.90;66.94
36254;BME280;22291;52.250;21.228;2022-08-30T08:33:11;100640.66;;;20.98;66.51
36254;BME280;22291;52.250;21.228;2022-08-30T08:35:39;100639.53;;;21.02;66.72
36254;BME280;22291;52.250;21.228;2022-08-30T08:38:06;100642.12;;;21.18;66.53
36254;BME280;22291;52.250;21.228;2022-08-30T08:40:35;100639.27;;;21.28;66.16
36254;BME280;22291;52.250;21.228;2022-08-30T08:43:13;100645.08;;;21.36;66.12
36254;BME280;22291;52.250;21.228;2022-08-30T08:48:33;100648.20;;;21.48;65.12
36254;BME280;22291;52.250;21.228;2022-08-30T08:51:02;100647.24;;;21.50;64.80
36254;BME280;22291;52.250;21.228;2022-08-30T08:53:50;100650.95;;;21.48;64.29
36254;BME280;22291;52.250;21.228;2022-08-30T08:56:19;100645.67;;;21.49;64.20
36254;BME280;22291;52.250;21.228;2022-08-30T08:58:53;100647.91;;;21.43;64.24
36254;BME280;22291;52.250;21.228;2022-08-30T09:01:24;100652.55;;;21.49;64.53
36254;BME280;22291;52.250;21.228;2022-08-30T09:03:53;100648.05;;;21.51;64.18
36254;BME280;22291;52.250;21.228;2022-08-30T09:08:57;100650.44;;;21.52;64.04
36254;BME280;22291;52.250;21.228;2022-08-30T09:11:27;100650.81;;;21.51;63.74
36254;BME280;22291;52.250;21.228;2022-08-30T09:13:55;100651.81;;;21.52;64.04
36254;BME280;22291;52.250;21.228;2022-08-30T09:16:51;100660.34;;;21.60;64.21
36254;BME280;22291;52.250;21.228;2022-08-30T09:27:47;100652.42;;;22.30;63.80
36254;BME280;22291;52.250;21.228;2022-08-30T09:30:21;100653.64;;;22.33;61.96
36254;BME280;22291;52.250;21.228;2022-08-30T09:32:58;100654.90;;;22.22;61.71
36254;BME280;22291;52.250;21.228;2022-08-30T09:38:23;100653.19;;;22.07;62.53
36254;BME280;22291;52.250;21.228;2022-08-30T09:41:01;100660.13;;;22.14;61.91
36254;BME280;22291;52.250;21.228;2022-08-30T09:43:32;100665.98;;;22.09;61.23
36254;BME280;22291;52.250;21.228;2022-08-30T09:48:40;100662.54;;;21.98;61.95
36254;BME280;22291;52.250;21.228;2022-08-30T10:00:05;100664.82;;;21.93;61.74
36254;BME280;22291;52.250;21.228;2022-08-30T10:03:22;100661.16;;;21.98;61.94
36254;BME280;22291;52.250;21.228;2022-08-30T10:05:24;100663.23;;;22.09;62.09
36254;BME280;22291;52.250;21.228;2022-08-30T10:08:05;100655.75;;;22.09;61.30
36254;BME280;22291;52.250;21.228;2022-08-30T10:19:02;100659.03;;;22.22;61.25
36254;BME280;22291;52.250;21.228;2022-08-30T10:21:39;100665.63;;;22.31;61.37
36254;BME280;22291;52.250;21.228;2022-08-30T10:24:17;100662.55;;;22.40;61.36
36254;BME280;22291;52.250;21.228;2022-08-30T10:29:27;100664.73;;;22.44;59.86
36254;BME280;22291;52.250;21.228;2022-08-30T10:34:40;100661.41;;;22.24;59.93
36254;BME280;22291;52.250;21.228;2022-08-30T10:37:26;100667.30;;;22.22;60.05
36254;BME280;22291;52.250;21.228;2022-08-30T10:40:02;100673.00;;;22.23;60.15
36254;BME280;22291;52.250;21.228;2022-08-30T10:42:32;100675.72;;;22.19;60.06
36254;BME280;22291;52.250;21.228;2022-08-30T10:45:07;100677.81;;;22.13;60.01
36254;BME280;22291;52.250;21.228;2022-08-30T10:50:20;100675.09;;;21.96;60.12
36254;BME280;22291;52.250;21.228;2022-08-30T10:53:02;100676.02;;;21.90;60.38
36254;BME280;22291;52.250;21.228;2022-08-30T10:55:38;100674.39;;;21.86;60.71
36254;BME280;22291;52.250;21.228;2022-08-30T10:58:07;100668.06;;;21.81;60.54
36254;BME280;22291;52.250;21.228;2022-08-30T11:10:24;100670.11;;;21.88;60.64
36254;BME280;22291;52.250;21.228;2022-08-30T11:13:20;100663.41;;;21.89;60.58
36254;BME280;22291;52.250;21.228;2022-08-30T11:16:05;100673.86;;;21.90;60.53
36254;BME280;22291;52.250;21.228;2022-08-30T11:18:42;100670.85;;;21.85;60.33
36254;BME280;22291;52.250;21.228;2022-08-30T11:24:06;100678.08;;;21.80;60.65
36254;BME280;22291;52.250;21.228;2022-08-30T11:29:31;100673.45;;;21.91;60.73
36254;BME280;22291;52.250;21.228;2022-08-30T11:34:55;100668.61;;;21.98;60.23
36254;BME280;22291;52.250;21.228;2022-08-30T11:37:39;100668.27;;;22.03;60.23
36254;BME280;22291;52.250;21.228;2022-08-30T11:42:54;100681.89;;;22.26;60.01
36254;BME280;22291;52.250;21.228;2022-08-30T11:47:58;100679.34;;;22.44;59.69
36254;BME280;22291;52.250;21.228;2022-08-30T11:53:44;100673.66;;;22.50;59.08
36254;BME280;22291;52.250;21.228;2022-08-30T12:22:51;100661.96;;;22.92;56.89
36254;BME280;22291;52.250;21.228;2022-08-30T12:51:43;100625.41;;;23.48;55.58
36254;BME280;22291;52.250;21.228;2022-08-30T13:40:20;100623.06;;;23.57;50.91
36254;BME280;22291;52.250;21.228;2022-08-30T13:43:02;100622.42;;;23.40;51.12
36254;BME280;22291;52.250;21.228;2022-08-30T13:48:31;100630.20;;;23.16;51.52
36254;BME280;22291;52.250;21.228;2022-08-30T13:54:53;100630.06;;;22.98;51.52
36254;BME280;22291;52.250;21.228;2022-08-30T14:01:40;100624.61;;;22.74;52.04
36254;BME280;22291;52.250;21.228;2022-08-30T14:12:00;100611.59;;;22.43;52.15
36254;BME280;22291;52.250;21.228;2022-08-30T14:18:39;100609.66;;;22.27;52.85
36254;BME280;22291;52.250;21.228;2022-08-30T14:21:05;100612.28;;;22.29;53.52
36254;BME280;22291;52.250;21.228;2022-08-30T14:23:31;100614.30;;;22.36;53.68
36254;BME280;22291;52.250;21.228;2022-08-30T14:25:59;100603.49;;;22.41;53.92
36254;BME280;22291;52.250;21.228;2022-08-30T14:28:27;100605.95;;;22.49;54.12
36254;BME280;22291;52.250;21.228;2022-08-30T14:30:55;100611.46;;;22.49;53.70
36254;BME280;22291;52.250;21.228;2022-08-30T14:33:22;100605.35;;;22.50;53.77
36254;BME280;22291;52.250;21.228;2022-08-30T14:35:48;100613.00;;;22.47;53.64
36254;BME280;22291;52.250;21.228;2022-08-30T14:38:14;100611.08;;;22.51;54.15
36254;BME280;22291;52.250;21.228;2022-08-30T14:40:41;100614.34;;;22.71;54.42
36254;BME280;22291;52.250;21.228;2022-08-30T14:43:07;100612.69;;;22.87;54.28
36254;BME280;22291;52.250;21.228;2022-08-30T14:45:37;100603.89;;;23.05;54.11
36254;BME280;22291;52.250;21.228;2022-08-30T14:48:04;100601.64;;;23.22;53.75
36254;BME280;22291;52.250;21.228;2022-08-30T14:50:32;100605.81;;;23.33;53.47
36254;BME280;22291;52.250;21.228;2022-08-30T14:52:58;100607.03;;;23.42;53.22
36254;BME280;22291;52.250;21.228;2022-08-30T14:55:24;100604.28;;;23.46;52.53
36254;BME280;22291;52.250;21.228;2022-08-30T14:57:53;100608.41;;;23.42;52.06
36254;BME280;22291;52.250;21.228;2022-08-30T15:00:19;100610.17;;;23.37;52.20
36254;BME280;22291;52.250;21.228;2022-08-30T15:02:47;100619.21;;;23.30;52.08
36254;BME280;22291;52.250;21.228;2022-08-30T15:05:15;100616.42;;;23.20;52.42
36254;BME280;22291;52.250;21.228;2022-08-30T15:07:42;100618.88;;;23.04;52.75
36254;BME280;22291;52.250;21.228;2022-08-30T15:10:10;100623.52;;;22.89;53.29
36254;BME280;22291;52.250;21.228;2022-08-30T15:12:38;100625.03;;;22.80;53.88
36254;BME280;22291;52.250;21.228;2022-08-30T15:15:08;100625.70;;;22.62;53.94
36254;BME280;22291;52.250;21.228;2022-08-30T15:17:35;100627.78;;;22.48;54.18
36254;BME280;22291;52.250;21.228;2022-08-30T15:20:05;100627.70;;;22.37;54.43
36254;BME280;22291;52.250;21.228;2022-08-30T15:22:32;100629.54;;;22.26;54.65
36254;BME280;22291;52.250;21.228;2022-08-30T15:24:59;100627.89;;;22.18;55.10
36254;BME280;22291;52.250;21.228;2022-08-30T15:27:28;100625.30;;;22.12;55.44
36254;BME280;22291;52.250;21.228;2022-08-30T15:29:54;100633.66;;;22.02;55.32
36254;BME280;22291;52.250;21.228;2022-08-30T15:32:21;100639.66;;;21.94;55.25
36254;BME280;22291;52.250;21.228;2022-08-30T15:34:47;100630.34;;;21.86;55.39
36254;BME280;22291;52.250;21.228;2022-08-30T15:37:13;100623.17;;;21.77;55.09
36254;BME280;22291;52.250;21.228;2022-08-30T15:39:42;100626.41;;;21.66;54.99
36254;BME280;22291;52.250;21.228;2022-08-30T15:42:08;100621.95;;;21.54;55.15
36254;BME280;22291;52.250;21.228;2022-08-30T15:44:34;100613.22;;;21.49;55.53
36254;BME280;22291;52.250;21.228;2022-08-30T15:47:00;100615.48;;;21.43;55.63
36254;BME280;22291;52.250;21.228;2022-08-30T15:49:28;100614.86;;;21.40;55.78
36254;BME280;22291;52.250;21.228;2022-08-30T15:51:59;100610.13;;;21.37;55.81
36254;BME280;22291;52.250;21.228;2022-08-30T15:54:28;100606.52;;;21.33;55.98
36254;BME280;22291;52.250;21.228;2022-08-30T15:56:54;100609.61;;;21.27;55.92
36254;BME280;22291;52.250;21.228;2022-08-30T15:59:22;100605.92;;;21.16;56.08
36254;BME280;22291;52.250;21.228;2022-08-30T16:01:49;100602.89;;;21.08;56.27
36254;BME280;22291;52.250;21.228;2022-08-30T16:04:16;100607.34;;;21.03;56.55
36254;BME280;22291;52.250;21.228;2022-08-30T16:06:42;100604.15;;;21.01;56.87
36254;BME280;22291;52.250;21.228;2022-08-30T16:09:09;100604.84;;;20.94;56.85